sensor_id;sensor_type;location;lat;lon;timestamp;temperature;humidity
14604;DHT22;7388;51.078;13.740;2022-12-31T00:01:35;14.00;43.60
14604;DHT22;7388;51.078;13.740;2022-12-31T00:04:00;14.00;43.10
14604;DHT22;7388;51.078;13.740;2022-12-31T00:06:33;14.00;43.10
14604;DHT22;7388;51.078;13.740;2022-12-31T00:09:02;14.00;43.40
14604;DHT22;7388;51.078;13.740;2022-12-31T00:11:29;14.00;43.50
14604;DHT22;7388;51.078;13.740;2022-12-31T00:13:56;14.10;44.00
14604;DHT22;7388;51.078;13.740;2022-12-31T00:16:25;14.20;43.90
14604;DHT22;7388;51.078;13.740;2022-12-31T00:18:53;14.30;43.60
14604;DHT22;7388;51.078;13.740;2022-12-31T00:21:19;14.30;43.60
14604;DHT22;7388;51.078;13.740;2022-12-31T00:23:45;14.30;43.60
14604;DHT22;7388;51.078;13.740;2022-12-31T00:26:14;14.40;43.70
14604;DHT22;7388;51.078;13.740;2022-12-31T00:28:41;14.40;43.60
14604;DHT22;7388;51.078;13.740;2022-12-31T00:31:24;14.40;44.00
14604;DHT22;7388;51.078;13.740;2022-12-31T00:33:50;14.40;43.90
14604;DHT22;7388;51.078;13.740;2022-12-31T00:36:23;14.40;44.20
14604;DHT22;7388;51.078;13.740;2022-12-31T00:38:50;14.50;44.00
14604;DHT22;7388;51.078;13.740;2022-12-31T00:41:18;14.50;44.00
14604;DHT22;7388;51.078;13.740;2022-12-31T00:43:44;14.50;43.70
14604;DHT22;7388;51.078;13.740;2022-12-31T00:46:11;14.50;44.40
14604;DHT22;7388;51.078;13.740;2022-12-31T00:48:37;14.60;44.10
14604;DHT22;7388;51.078;13.740;2022-12-31T00:51:06;14.60;43.70
14604;DHT22;7388;51.078;13.740;2022-12-31T00:53:32;14.70;43.70
14604;DHT22;7388;51.078;13.740;2022-12-31T00:56:08;14.80;43.50
14604;DHT22;7388;51.078;13.740;2022-12-31T00:58:34;14.80;43.40
14604;DHT22;7388;51.078;13.740;2022-12-31T01:01:23;14.80;43.40
14604;DHT22;7388;51.078;13.740;2022-12-31T01:03:51;14.80;43.00
14604;DHT22;7388;51.078;13.740;2022-12-31T01:06:17;14.80;43.00
14604;DHT22;7388;51.078;13.740;2022-12-31T01:08:44;14.80;43.00
14604;DHT22;7388;51.078;13.740;2022-12-31T01:11:11;14.90;43.80
14604;DHT22;7388;51.078;13.740;2022-12-31T01:14:08;14.90;43.00
14604;DHT22;7388;51.078;13.740;2022-12-31T01:16:42;14.90;43.00
14604;DHT22;7388;51.078;13.740;2022-12-31T01:19:11;14.80;42.90
14604;DHT22;7388;51.078;13.740;2022-12-31T01:21:37;14.80;43.00
14604;DHT22;7388;51.078;13.740;2022-12-31T01:24:04;14.80;43.00
14604;DHT22;7388;51.078;13.740;2022-12-31T01:26:30;14.80;43.00
14604;DHT22;7388;51.078;13.740;2022-12-31T01:28:56;14.70;43.00
14604;DHT22;7388;51.078;13.740;2022-12-31T01:31:23;14.70;43.20
14604;DHT22;7388;51.078;13.740;2022-12-31T01:33:49;14.60;43.10
14604;DHT22;7388;51.078;13.740;2022-12-31T01:36:19;14.60;43.10
14604;DHT22;7388;51.078;13.740;2022-12-31T01:38:44;14.60;43.10
14604;DHT22;7388;51.078;13.740;2022-12-31T01:41:13;14.50;43.10
14604;DHT22;7388;51.078;13.740;2022-12-31T01:46:09;14.50;43.30
14604;DHT22;7388;51.078;13.740;2022-12-31T01:48:37;14.50;43.30
14604;DHT22;7388;51.078;13.740;2022-12-31T01:51:04;14.40;43.30
14604;DHT22;7388;51.078;13.740;2022-12-31T01:53:32;14.40;43.40
14604;DHT22;7388;51.078;13.740;2022-12-31T01:55:58;14.40;43.60
14604;DHT22;7388;51.078;13.740;2022-12-31T01:58:32;14.40;43.60
14604;DHT22;7388;51.078;13.740;2022-12-31T02:00:59;14.40;43.80
14604;DHT22;7388;51.078;13.740;2022-12-31T02:03:26;14.40;43.70
14604;DHT22;7388;51.078;13.740;2022-12-31T02:08:38;14.40;43.70
14604;DHT22;7388;51.078;13.740;2022-12-31T02:11:36;14.40;43.70
14604;DHT22;7388;51.078;13.740;2022-12-31T02:14:24;14.50;43.60
14604;DHT22;7388;51.078;13.740;2022-12-31T02:16:56;14.50;43.70
14604;DHT22;7388;51.078;13.740;2022-12-31T02:31:15;14.40;44.50
14604;DHT22;7388;51.078;13.740;2022-12-31T02:33:49;14.40;44.60
14604;DHT22;7388;51.078;13.740;2022-12-31T02:36:24;14.40;44.50
14604;DHT22;7388;51.078;13.740;2022-12-31T02:38:53;14.40;44.70
14604;DHT22;7388;51.078;13.740;2022-12-31T02:41:20;14.40;44.90
14604;DHT22;7388;51.078;13.740;2022-12-31T02:44:24;14.50;45.00
14604;DHT22;7388;51.078;13.740;2022-12-31T03:00:46;14.60;44.90
14604;DHT22;7388;51.078;13.740;2022-12-31T03:03:32;14.50;45.00
14604;DHT22;7388;51.078;13.740;2022-12-31T03:06:00;14.50;45.30
14604;DHT22;7388;51.078;13.740;2022-12-31T03:08:27;14.50;45.00
14604;DHT22;7388;51.078;13.740;2022-12-31T03:10:53;14.50;44.90
14604;DHT22;7388;51.078;13.740;2022-12-31T03:15:57;14.60;44.80
14604;DHT22;7388;51.078;13.740;2022-12-31T03:18:22;14.50;44.90
14604;DHT22;7388;51.078;13.740;2022-12-31T03:21:11;14.50;45.10
14604;DHT22;7388;51.078;13.740;2022-12-31T03:23:56;14.60;45.20
14604;DHT22;7388;51.078;13.740;2022-12-31T03:26:40;14.60;45.10
14604;DHT22;7388;51.078;13.740;2022-12-31T03:29:06;14.60;45.10
14604;DHT22;7388;51.078;13.740;2022-12-31T03:31:31;14.60;45.30
14604;DHT22;7388;51.078;13.740;2022-12-31T03:33:57;14.60;45.50
14604;DHT22;7388;51.078;13.740;2022-12-31T03:36:23;14.60;45.30
14604;DHT22;7388;51.078;13.740;2022-12-31T03:38:48;14.70;45.50
14604;DHT22;7388;51.078;13.740;2022-12-31T03:41:14;14.70;45.40
14604;DHT22;7388;51.078;13.740;2022-12-31T03:43:40;14.70;45.60
14604;DHT22;7388;51.078;13.740;2022-12-31T03:46:06;14.70;45.80
14604;DHT22;7388;51.078;13.740;2022-12-31T03:48:31;14.80;45.80
14604;DHT22;7388;51.078;13.740;2022-12-31T03:50:57;14.80;46.10
14604;DHT22;7388;51.078;13.740;2022-12-31T03:53:23;14.80;46.70
14604;DHT22;7388;51.078;13.740;2022-12-31T03:55:52;14.90;47.00
14604;DHT22;7388;51.078;13.740;2022-12-31T03:58:18;15.00;46.60
14604;DHT22;7388;51.078;13.740;2022-12-31T04:00:44;15.10;46.70
14604;DHT22;7388;51.078;13.740;2022-12-31T04:03:10;15.10;46.20
14604;DHT22;7388;51.078;13.740;2022-12-31T04:05:35;15.10;46.00
14604;DHT22;7388;51.078;13.740;2022-12-31T04:08:01;15.10;45.90
14604;DHT22;7388;51.078;13.740;2022-12-31T04:10:27;15.00;45.90
14604;DHT22;7388;51.078;13.740;2022-12-31T04:12:53;15.10;46.20
14604;DHT22;7388;51.078;13.740;2022-12-31T04:15:19;15.00;46.00
14604;DHT22;7388;51.078;13.740;2022-12-31T04:17:46;15.00;46.10
14604;DHT22;7388;51.078;13.740;2022-12-31T04:20:12;15.00;46.40
14604;DHT22;7388;51.078;13.740;2022-12-31T04:22:38;15.00;46.40
14604;DHT22;7388;51.078;13.740;2022-12-31T04:25:05;15.10;46.50
14604;DHT22;7388;51.078;13.740;2022-12-31T04:27:39;15.10;46.20
14604;DHT22;7388;51.078;13.740;2022-12-31T04:30:06;15.10;46.60
14604;DHT22;7388;51.078;13.740;2022-12-31T04:32:32;15.10;46.80
14604;DHT22;7388;51.078;13.740;2022-12-31T04:34:58;15.20;46.50
14604;DHT22;7388;51.078;13.740;2022-12-31T04:37:23;15.20;46.60
14604;DHT22;7388;51.078;13.740;2022-12-31T04:39:49;15.20;46.70
14604;DHT22;7388;51.078;13.740;2022-12-31T04:42:15;15.20;46.80
14604;DHT22;7388;51.078;13.740;2022-12-31T04:44:40;15.20;46.90
14604;DHT22;7388;51.078;13.740;2022-12-31T04:47:06;15.30;46.90
14604;DHT22;7388;51.078;13.740;2022-12-31T04:49:32;15.40;46.70
14604;DHT22;7388;51.078;13.740;2022-12-31T04:51:57;15.40;46.90
14604;DHT22;7388;51.078;13.740;2022-12-31T04:54:23;15.40;47.00
14604;DHT22;7388;51.078;13.740;2022-12-31T04:56:49;15.40;46.90
14604;DHT22;7388;51.078;13.740;2022-12-31T04:59:14;15.40;47.10
14604;DHT22;7388;51.078;13.740;2022-12-31T05:01:40;15.50;47.20
14604;DHT22;7388;51.078;13.740;2022-12-31T05:04:06;15.40;47.10
14604;DHT22;7388;51.078;13.740;2022-12-31T05:06:32;15.50;47.30
14604;DHT22;7388;51.078;13.740;2022-12-31T05:08:58;15.50;47.10
14604;DHT22;7388;51.078;13.740;2022-12-31T05:11:23;15.60;47.10
14604;DHT22;7388;51.078;13.740;2022-12-31T05:13:49;15.60;46.90
14604;DHT22;7388;51.078;13.740;2022-12-31T05:16:15;15.60;47.00
14604;DHT22;7388;51.078;13.740;2022-12-31T05:18:41;15.70;46.70
14604;DHT22;7388;51.078;13.740;2022-12-31T05:21:06;15.80;46.60
14604;DHT22;7388;51.078;13.740;2022-12-31T05:23:32;15.80;46.40
14604;DHT22;7388;51.078;13.740;2022-12-31T05:25:58;15.80;46.20
14604;DHT22;7388;51.078;13.740;2022-12-31T05:28:24;15.80;46.30
14604;DHT22;7388;51.078;13.740;2022-12-31T05:30:50;15.80;46.20
14604;DHT22;7388;51.078;13.740;2022-12-31T05:33:17;15.80;46.40
14604;DHT22;7388;51.078;13.740;2022-12-31T05:35:43;15.90;46.40
14604;DHT22;7388;51.078;13.740;2022-12-31T05:38:09;15.90;46.30
14604;DHT22;7388;51.078;13.740;2022-12-31T05:40:35;16.00;46.10
14604;DHT22;7388;51.078;13.740;2022-12-31T05:43:01;15.90;46.10
14604;DHT22;7388;51.078;13.740;2022-12-31T05:45:26;16.00;46.40
14604;DHT22;7388;51.078;13.740;2022-12-31T05:47:52;15.90;46.40
14604;DHT22;7388;51.078;13.740;2022-12-31T05:50:18;16.00;47.30
14604;DHT22;7388;51.078;13.740;2022-12-31T05:52:44;16.00;49.00
14604;DHT22;7388;51.078;13.740;2022-12-31T05:55:11;16.10;48.40
14604;DHT22;7388;51.078;13.740;2022-12-31T05:57:37;16.20;48.90
14604;DHT22;7388;51.078;13.740;2022-12-31T06:00:05;16.40;48.60
14604;DHT22;7388;51.078;13.740;2022-12-31T06:02:31;16.60;47.80
14604;DHT22;7388;51.078;13.740;2022-12-31T06:04:57;16.80;47.50
14604;DHT22;7388;51.078;13.740;2022-12-31T06:07:23;16.90;47.40
14604;DHT22;7388;51.078;13.740;2022-12-31T06:09:48;17.00;47.20
14604;DHT22;7388;51.078;13.740;2022-12-31T06:12:14;17.10;47.00
14604;DHT22;7388;51.078;13.740;2022-12-31T06:14:40;17.20;46.70
14604;DHT22;7388;51.078;13.740;2022-12-31T06:17:06;17.20;46.70
14604;DHT22;7388;51.078;13.740;2022-12-31T06:19:31;17.30;46.70
14604;DHT22;7388;51.078;13.740;2022-12-31T06:21:57;17.40;46.10
14604;DHT22;7388;51.078;13.740;2022-12-31T06:24:23;17.50;45.90
14604;DHT22;7388;51.078;13.740;2022-12-31T06:26:49;17.50;45.80
14604;DHT22;7388;51.078;13.740;2022-12-31T06:29:14;17.60;45.40
14604;DHT22;7388;51.078;13.740;2022-12-31T06:31:40;17.60;45.40
14604;DHT22;7388;51.078;13.740;2022-12-31T06:34:06;17.50;45.60
14604;DHT22;7388;51.078;13.740;2022-12-31T06:36:32;17.60;45.30
14604;DHT22;7388;51.078;13.740;2022-12-31T06:38:57;17.60;45.00
14604;DHT22;7388;51.078;13.740;2022-12-31T06:41:23;17.60;45.00
14604;DHT22;7388;51.078;13.740;2022-12-31T06:43:49;17.60;45.00
14604;DHT22;7388;51.078;13.740;2022-12-31T06:46:16;17.60;45.00
14604;DHT22;7388;51.078;13.740;2022-12-31T06:48:43;17.60;44.80
14604;DHT22;7388;51.078;13.740;2022-12-31T06:51:14;17.60;44.90
14604;DHT22;7388;51.078;13.740;2022-12-31T06:53:40;17.70;45.00
14604;DHT22;7388;51.078;13.740;2022-12-31T06:56:24;17.60;44.70
14604;DHT22;7388;51.078;13.740;2022-12-31T06:58:51;17.60;44.80
14604;DHT22;7388;51.078;13.740;2022-12-31T07:06:42;17.60;45.20
14604;DHT22;7388;51.078;13.740;2022-12-31T07:09:41;17.50;45.30
14604;DHT22;7388;51.078;13.740;2022-12-31T07:20:32;17.70;45.00
14604;DHT22;7388;51.078;13.740;2022-12-31T07:22:58;17.70;45.00
14604;DHT22;7388;51.078;13.740;2022-12-31T07:25:24;17.80;44.80
14604;DHT22;7388;51.078;13.740;2022-12-31T07:36:02;17.80;44.80
14604;DHT22;7388;51.078;13.740;2022-12-31T07:38:52;17.90;44.70
14604;DHT22;7388;51.078;13.740;2022-12-31T07:41:37;18.10;44.20
14604;DHT22;7388;51.078;13.740;2022-12-31T07:46:59;18.10;43.90
14604;DHT22;7388;51.078;13.740;2022-12-31T07:49:27;18.10;44.00
14604;DHT22;7388;51.078;13.740;2022-12-31T07:51:53;18.10;44.00
14604;DHT22;7388;51.078;13.740;2022-12-31T07:54:20;18.10;44.00
14604;DHT22;7388;51.078;13.740;2022-12-31T07:56:46;18.20;43.90
14604;DHT22;7388;51.078;13.740;2022-12-31T07:59:50;18.20;44.10
14604;DHT22;7388;51.078;13.740;2022-12-31T08:10:26;18.80;43.20
14604;DHT22;7388;51.078;13.740;2022-12-31T08:13:02;18.80;43.10
14604;DHT22;7388;51.078;13.740;2022-12-31T08:15:28;18.90;42.80
14604;DHT22;7388;51.078;13.740;2022-12-31T08:17:54;18.90;43.10
14604;DHT22;7388;51.078;13.740;2022-12-31T08:20:20;19.00;42.80
14604;DHT22;7388;51.078;13.740;2022-12-31T08:28:16;18.90;43.10
14604;DHT22;7388;51.078;13.740;2022-12-31T08:31:00;19.10;43.40
14604;DHT22;7388;51.078;13.740;2022-12-31T08:36:10;19.40;42.40
14604;DHT22;7388;51.078;13.740;2022-12-31T08:38:44;19.50;41.80
14604;DHT22;7388;51.078;13.740;2022-12-31T08:41:21;19.40;42.20
14604;DHT22;7388;51.078;13.740;2022-12-31T08:49:31;19.80;40.90
14604;DHT22;7388;51.078;13.740;2022-12-31T08:51:58;19.70;41.90
14604;DHT22;7388;51.078;13.740;2022-12-31T08:54:25;19.70;41.40
14604;DHT22;7388;51.078;13.740;2022-12-31T09:02:29;19.80;41.40
14604;DHT22;7388;51.078;13.740;2022-12-31T09:07:37;20.10;40.60
14604;DHT22;7388;51.078;13.740;2022-12-31T09:13:11;20.20;40.80
14604;DHT22;7388;51.078;13.740;2022-12-31T09:15:43;20.20;40.40
14604;DHT22;7388;51.078;13.740;2022-12-31T09:18:11;20.40;40.50
14604;DHT22;7388;51.078;13.740;2022-12-31T09:20:37;20.30;40.30
14604;DHT22;7388;51.078;13.740;2022-12-31T09:23:04;20.40;40.60
14604;DHT22;7388;51.078;13.740;2022-12-31T09:25:30;20.50;40.10
14604;DHT22;7388;51.078;13.740;2022-12-31T09:30:27;20.60;40.00
14604;DHT22;7388;51.078;13.740;2022-12-31T09:33:09;20.70;39.40
14604;DHT22;7388;51.078;13.740;2022-12-31T09:35:52;20.60;39.50
14604;DHT22;7388;51.078;13.740;2022-12-31T09:41:33;20.40;39.60
14604;DHT22;7388;51.078;13.740;2022-12-31T09:53:22;20.30;39.70
14604;DHT22;7388;51.078;13.740;2022-12-31T10:04:18;20.80;38.70
14604;DHT22;7388;51.078;13.740;2022-12-31T10:09:59;21.30;37.70
14604;DHT22;7388;51.078;13.740;2022-12-31T10:21:48;22.20;36.30
14604;DHT22;7388;51.078;13.740;2022-12-31T10:27:46;22.40;35.80
14604;DHT22;7388;51.078;13.740;2022-12-31T10:30:19;22.60;35.50
14604;DHT22;7388;51.078;13.740;2022-12-31T10:36:17;22.60;36.40
14604;DHT22;7388;51.078;13.740;2022-12-31T10:50:24;22.30;36.80
14604;DHT22;7388;51.078;13.740;2022-12-31T10:53:14;22.20;35.90
14604;DHT22;7388;51.078;13.740;2022-12-31T10:58:50;22.10;36.50
14604;DHT22;7388;51.078;13.740;2022-12-31T11:04:18;21.90;37.10
14604;DHT22;7388;51.078;13.740;2022-12-31T11:09:54;21.70;37.10
14604;DHT22;7388;51.078;13.740;2022-12-31T11:20:47;21.80;37.60
14604;DHT22;7388;51.078;13.740;2022-12-31T11:23:40;21.80;37.00
14604;DHT22;7388;51.078;13.740;2022-12-31T11:34:45;21.70;37.60
14604;DHT22;7388;51.078;13.740;2022-12-31T11:37:32;21.50;37.70
14604;DHT22;7388;51.078;13.740;2022-12-31T11:45:50;21.60;37.80
14604;DHT22;7388;51.078;13.740;2022-12-31T11:56:37;21.80;37.20
14604;DHT22;7388;51.078;13.740;2022-12-31T11:59:10;21.90;37.10
14604;DHT22;7388;51.078;13.740;2022-12-31T12:04:10;22.00;37.00
14604;DHT22;7388;51.078;13.740;2022-12-31T12:06:38;22.00;37.00
14604;DHT22;7388;51.078;13.740;2022-12-31T12:09:09;22.00;37.40
14604;DHT22;7388;51.078;13.740;2022-12-31T12:11:39;22.00;36.60
14604;DHT22;7388;51.078;13.740;2022-12-31T12:14:28;21.90;36.90
14604;DHT22;7388;51.078;13.740;2022-12-31T12:16:55;22.10;36.60
14604;DHT22;7388;51.078;13.740;2022-12-31T12:19:25;22.00;36.60
14604;DHT22;7388;51.078;13.740;2022-12-31T12:21:52;22.00;36.60
14604;DHT22;7388;51.078;13.740;2022-12-31T12:24:20;22.40;36.40
14604;DHT22;7388;51.078;13.740;2022-12-31T12:26:46;22.80;35.90
14604;DHT22;7388;51.078;13.740;2022-12-31T12:29:53;23.10;34.70
14604;DHT22;7388;51.078;13.740;2022-12-31T12:32:24;23.30;34.60
14604;DHT22;7388;51.078;13.740;2022-12-31T12:34:50;23.60;34.20
14604;DHT22;7388;51.078;13.740;2022-12-31T12:37:31;23.70;34.40
14604;DHT22;7388;51.078;13.740;2022-12-31T12:40:21;24.10;33.80
14604;DHT22;7388;51.078;13.740;2022-12-31T12:42:50;24.50;33.20
14604;DHT22;7388;51.078;13.740;2022-12-31T12:45:22;24.70;32.30
14604;DHT22;7388;51.078;13.740;2022-12-31T12:47:55;24.50;32.30
14604;DHT22;7388;51.078;13.740;2022-12-31T12:50:23;24.40;32.10
14604;DHT22;7388;51.078;13.740;2022-12-31T12:55:49;24.10;32.70
14604;DHT22;7388;51.078;13.740;2022-12-31T13:17:02;22.90;34.60
14604;DHT22;7388;51.078;13.740;2022-12-31T13:27:39;22.30;35.70
14604;DHT22;7388;51.078;13.740;2022-12-31T13:32:47;22.00;36.20
14604;DHT22;7388;51.078;13.740;2022-12-31T13:35:23;21.90;36.40
14604;DHT22;7388;51.078;13.740;2022-12-31T13:37:53;21.90;36.40
14604;DHT22;7388;51.078;13.740;2022-12-31T13:40:39;21.90;36.60
14604;DHT22;7388;51.078;13.740;2022-12-31T13:43:18;21.90;36.40
14604;DHT22;7388;51.078;13.740;2022-12-31T13:45:58;21.80;36.50
14604;DHT22;7388;51.078;13.740;2022-12-31T13:48:32;21.80;36.50
14604;DHT22;7388;51.078;13.740;2022-12-31T13:51:06;21.60;36.80
14604;DHT22;7388;51.078;13.740;2022-12-31T13:54:02;21.60;36.90
14604;DHT22;7388;51.078;13.740;2022-12-31T13:56:35;21.60;36.80
14604;DHT22;7388;51.078;13.740;2022-12-31T13:59:20;21.60;36.80
14604;DHT22;7388;51.078;13.740;2022-12-31T14:04:56;21.50;37.10
14604;DHT22;7388;51.078;13.740;2022-12-31T14:07:52;21.50;37.00
14604;DHT22;7388;51.078;13.740;2022-12-31T14:10:25;21.50;37.10
14604;DHT22;7388;51.078;13.740;2022-12-31T14:13:02;21.60;36.90
14604;DHT22;7388;51.078;13.740;2022-12-31T14:15:42;21.50;37.20
14604;DHT22;7388;51.078;13.740;2022-12-31T14:26:44;21.60;36.90
14604;DHT22;7388;51.078;13.740;2022-12-31T14:39:57;21.60;36.80
14604;DHT22;7388;51.078;13.740;2022-12-31T14:51:00;21.40;37.00
14604;DHT22;7388;51.078;13.740;2022-12-31T14:53:28;21.30;37.20
14604;DHT22;7388;51.078;13.740;2022-12-31T14:56:02;21.40;37.10
14604;DHT22;7388;51.078;13.740;2022-12-31T14:58:34;21.40;37.10
14604;DHT22;7388;51.078;13.740;2022-12-31T15:01:20;21.40;36.90
14604;DHT22;7388;51.078;13.740;2022-12-31T15:03:47;21.40;37.00
14604;DHT22;7388;51.078;13.740;2022-12-31T15:09:09;21.20;37.20
14604;DHT22;7388;51.078;13.740;2022-12-31T15:24:44;21.10;37.10
14604;DHT22;7388;51.078;13.740;2022-12-31T15:27:37;21.20;37.10
14604;DHT22;7388;51.078;13.740;2022-12-31T15:30:25;21.30;37.00
14604;DHT22;7388;51.078;13.740;2022-12-31T15:32:54;21.30;36.80
14604;DHT22;7388;51.078;13.740;2022-12-31T15:38:01;21.30;36.80
14604;DHT22;7388;51.078;13.740;2022-12-31T15:40:28;21.20;36.90
14604;DHT22;7388;51.078;13.740;2022-12-31T15:43:16;21.20;36.70
14604;DHT22;7388;51.078;13.740;2022-12-31T15:45:45;21.20;37.00
14604;DHT22;7388;51.078;13.740;2022-12-31T15:48:18;21.20;37.00
14604;DHT22;7388;51.078;13.740;2022-12-31T15:50:49;21.20;36.80
14604;DHT22;7388;51.078;13.740;2022-12-31T15:53:43;21.10;37.00
14604;DHT22;7388;51.078;13.740;2022-12-31T15:56:38;21.20;36.80
14604;DHT22;7388;51.078;13.740;2022-12-31T15:59:11;21.20;36.70
14604;DHT22;7388;51.078;13.740;2022-12-31T16:01:40;21.20;36.70
14604;DHT22;7388;51.078;13.740;2022-12-31T16:04:19;21.20;36.80
14604;DHT22;7388;51.078;13.740;2022-12-31T16:06:46;21.10;36.80
14604;DHT22;7388;51.078;13.740;2022-12-31T16:11:50;21.00;37.00
14604;DHT22;7388;51.078;13.740;2022-12-31T16:14:43;21.10;37.00
14604;DHT22;7388;51.078;13.740;2022-12-31T16:17:29;21.00;36.90
14604;DHT22;7388;51.078;13.740;2022-12-31T16:19:56;21.10;36.90
14604;DHT22;7388;51.078;13.740;2022-12-31T16:22:28;21.00;36.80
14604;DHT22;7388;51.078;13.740;2022-12-31T16:25:00;21.10;36.90
14604;DHT22;7388;51.078;13.740;2022-12-31T16:27:28;21.00;36.80
14604;DHT22;7388;51.078;13.740;2022-12-31T16:30:18;21.00;36.80
14604;DHT22;7388;51.078;13.740;2022-12-31T16:32:47;21.00;37.30
14604;DHT22;7388;51.078;13.740;2022-12-31T16:47:55;20.40;37.30
14604;DHT22;7388;51.078;13.740;2022-12-31T16:50:22;20.30;37.70
14604;DHT22;7388;51.078;13.740;2022-12-31T16:52:50;20.40;37.80
14604;DHT22;7388;51.078;13.740;2022-12-31T16:55:23;20.40;37.90
14604;DHT22;7388;51.078;13.740;2022-12-31T16:57:52;20.50;37.80
14604;DHT22;7388;51.078;13.740;2022-12-31T17:00:21;20.50;37.80
14604;DHT22;7388;51.078;13.740;2022-12-31T17:03:05;20.50;37.70
14604;DHT22;7388;51.078;13.740;2022-12-31T17:05:34;20.60;37.70
14604;DHT22;7388;51.078;13.740;2022-12-31T17:08:37;20.50;37.70
14604;DHT22;7388;51.078;13.740;2022-12-31T17:11:03;20.60;37.80
14604;DHT22;7388;51.078;13.740;2022-12-31T17:13:31;20.60;37.90
14604;DHT22;7388;51.078;13.740;2022-12-31T17:15:59;20.60;37.90
14604;DHT22;7388;51.078;13.740;2022-12-31T17:18:36;20.60;37.90
14604;DHT22;7388;51.078;13.740;2022-12-31T17:21:07;20.60;37.70
14604;DHT22;7388;51.078;13.740;2022-12-31T17:23:35;20.60;37.80
14604;DHT22;7388;51.078;13.740;2022-12-31T17:28:55;20.70;37.90
14604;DHT22;7388;51.078;13.740;2022-12-31T17:31:36;20.70;37.90
14604;DHT22;7388;51.078;13.740;2022-12-31T17:36:38;20.70;37.90
14604;DHT22;7388;51.078;13.740;2022-12-31T17:39:21;20.60;37.90
14604;DHT22;7388;51.078;13.740;2022-12-31T17:41:50;20.80;37.90
14604;DHT22;7388;51.078;13.740;2022-12-31T17:44:27;20.70;37.70
14604;DHT22;7388;51.078;13.740;2022-12-31T17:46:53;20.80;37.60
14604;DHT22;7388;51.078;13.740;2022-12-31T17:49:25;20.90;37.60
14604;DHT22;7388;51.078;13.740;2022-12-31T17:51:52;20.90;37.60
14604;DHT22;7388;51.078;13.740;2022-12-31T17:54:18;20.90;37.40
14604;DHT22;7388;51.078;13.740;2022-12-31T17:56:44;20.90;37.50
14604;DHT22;7388;51.078;13.740;2022-12-31T17:59:20;21.00;37.40
14604;DHT22;7388;51.078;13.740;2022-12-31T18:01:47;21.00;37.20
14604;DHT22;7388;51.078;13.740;2022-12-31T18:04:14;21.00;37.20
14604;DHT22;7388;51.078;13.740;2022-12-31T18:06:40;21.00;37.20
14604;DHT22;7388;51.078;13.740;2022-12-31T18:09:06;20.90;37.20
14604;DHT22;7388;51.078;13.740;2022-12-31T18:11:33;20.90;37.40
14604;DHT22;7388;51.078;13.740;2022-12-31T18:14:00;20.90;37.30
14604;DHT22;7388;51.078;13.740;2022-12-31T18:16:25;20.80;37.20
14604;DHT22;7388;51.078;13.740;2022-12-31T18:18:51;20.80;37.30
14604;DHT22;7388;51.078;13.740;2022-12-31T18:21:28;20.70;37.40
14604;DHT22;7388;51.078;13.740;2022-12-31T18:23:58;20.80;37.40
14604;DHT22;7388;51.078;13.740;2022-12-31T18:26:25;20.70;37.40
14604;DHT22;7388;51.078;13.740;2022-12-31T18:28:52;20.70;37.40
14604;DHT22;7388;51.078;13.740;2022-12-31T18:31:29;20.70;37.40
14604;DHT22;7388;51.078;13.740;2022-12-31T18:33:56;20.60;37.50
14604;DHT22;7388;51.078;13.740;2022-12-31T18:36:23;20.60;37.70
14604;DHT22;7388;51.078;13.740;2022-12-31T18:38:49;20.50;37.70
14604;DHT22;7388;51.078;13.740;2022-12-31T18:41:21;20.50;37.60
14604;DHT22;7388;51.078;13.740;2022-12-31T18:43:48;20.60;37.50
14604;DHT22;7388;51.078;13.740;2022-12-31T18:46:18;20.50;37.50
14604;DHT22;7388;51.078;13.740;2022-12-31T18:48:44;20.50;37.50
14604;DHT22;7388;51.078;13.740;2022-12-31T18:51:15;20.40;37.60
14604;DHT22;7388;51.078;13.740;2022-12-31T18:53:41;20.40;37.60
14604;DHT22;7388;51.078;13.740;2022-12-31T18:56:16;20.30;37.70
14604;DHT22;7388;51.078;13.740;2022-12-31T18:58:43;20.20;37.80
14604;DHT22;7388;51.078;13.740;2022-12-31T19:03:58;20.20;37.60
14604;DHT22;7388;51.078;13.740;2022-12-31T19:06:25;20.20;37.70
14604;DHT22;7388;51.078;13.740;2022-12-31T19:08:51;20.10;37.70
14604;DHT22;7388;51.078;13.740;2022-12-31T19:11:17;20.10;37.70
14604;DHT22;7388;51.078;13.740;2022-12-31T19:13:43;20.10;37.50
14604;DHT22;7388;51.078;13.740;2022-12-31T19:16:09;20.10;37.50
14604;DHT22;7388;51.078;13.740;2022-12-31T19:18:35;20.10;37.60
14604;DHT22;7388;51.078;13.740;2022-12-31T19:21:01;20.10;37.50
14604;DHT22;7388;51.078;13.740;2022-12-31T19:23:27;20.00;37.30
14604;DHT22;7388;51.078;13.740;2022-12-31T19:25:52;20.00;37.40
14604;DHT22;7388;51.078;13.740;2022-12-31T19:28:24;20.00;37.60
14604;DHT22;7388;51.078;13.740;2022-12-31T19:30:50;20.10;37.50
14604;DHT22;7388;51.078;13.740;2022-12-31T19:33:16;20.00;37.30
14604;DHT22;7388;51.078;13.740;2022-12-31T19:35:43;20.10;37.20
14604;DHT22;7388;51.078;13.740;2022-12-31T19:38:18;20.00;37.40
14604;DHT22;7388;51.078;13.740;2022-12-31T19:40:44;20.10;37.30
14604;DHT22;7388;51.078;13.740;2022-12-31T19:43:14;20.00;37.20
14604;DHT22;7388;51.078;13.740;2022-12-31T19:45:41;20.00;37.20
14604;DHT22;7388;51.078;13.740;2022-12-31T19:48:13;20.00;37.20
14604;DHT22;7388;51.078;13.740;2022-12-31T19:50:41;20.00;37.30
14604;DHT22;7388;51.078;13.740;2022-12-31T19:53:16;19.90;37.30
14604;DHT22;7388;51.078;13.740;2022-12-31T19:55:42;19.80;37.30
14604;DHT22;7388;51.078;13.740;2022-12-31T19:58:16;19.80;37.40
14604;DHT22;7388;51.078;13.740;2022-12-31T20:00:42;19.80;37.50
14604;DHT22;7388;51.078;13.740;2022-12-31T20:03:10;19.70;37.50
14604;DHT22;7388;51.078;13.740;2022-12-31T20:05:35;19.60;37.50
14604;DHT22;7388;51.078;13.740;2022-12-31T20:08:01;19.60;37.60
14604;DHT22;7388;51.078;13.740;2022-12-31T20:10:27;19.50;38.30
14604;DHT22;7388;51.078;13.740;2022-12-31T20:12:53;19.50;37.80
14604;DHT22;7388;51.078;13.740;2022-12-31T20:15:18;19.40;37.60
14604;DHT22;7388;51.078;13.740;2022-12-31T20:17:44;19.40;37.70
14604;DHT22;7388;51.078;13.740;2022-12-31T20:20:10;19.30;37.80
14604;DHT22;7388;51.078;13.740;2022-12-31T20:22:36;19.30;37.90
14604;DHT22;7388;51.078;13.740;2022-12-31T20:25:02;19.20;37.90
14604;DHT22;7388;51.078;13.740;2022-12-31T20:27:28;19.20;38.00
14604;DHT22;7388;51.078;13.740;2022-12-31T20:29:53;19.20;38.10
14604;DHT22;7388;51.078;13.740;2022-12-31T20:32:19;19.20;37.90
14604;DHT22;7388;51.078;13.740;2022-12-31T20:34:45;19.20;37.90
14604;DHT22;7388;51.078;13.740;2022-12-31T20:37:11;19.30;37.80
14604;DHT22;7388;51.078;13.740;2022-12-31T20:39:36;19.40;37.40
14604;DHT22;7388;51.078;13.740;2022-12-31T20:42:02;19.40;37.40
14604;DHT22;7388;51.078;13.740;2022-12-31T20:44:28;19.50;37.30